Polk City, Iowa
Current Conditions -  °F | °C
As of 12:15 AM on Thursday 29 Jan 2015 (Local Time) from KIKV Reporting Station
Haze Haze  
Wind Chill: 26°   Ceiling: 1000
Heat Index: 36°   Visibility: 6mi
Dew Point: 34°   Wind: 16mph
Humidity: 93%   Direction: 330°NNW
Pressure: 29.81"   Gusts: 29mph
Location:  41.77°N, 93.71°W
Report Text: KIKV 290615Z AUTO 33014G25KT 6SM BR OVC010 02/01 A2981 RMK AO2
Loading
Personal Weather Stations






























Interactive Weather Map New forecast layout! Learn more

10-Day Weather Forecast

Advertisements
Track Severe Weather on mobile